createdAt,value
2019-02-27T00:02:04.716Z,87.40
2019-02-27T00:04:34.873Z,87.40
2019-02-27T00:06:59.161Z,88.30
2019-02-27T00:09:25.517Z,87.90
2019-02-27T00:11:51.825Z,87.90
2019-02-27T00:14:18.281Z,89.70
2019-02-27T00:16:45.310Z,88.80
2019-02-27T00:19:11.615Z,87.80
2019-02-27T00:21:37.875Z,87.40
2019-02-27T00:24:04.262Z,87.40
2019-02-27T00:26:30.548Z,87.10
2019-02-27T00:28:56.832Z,86.50
2019-02-27T00:31:23.124Z,86.50
2019-02-27T00:33:49.393Z,86.70
2019-02-27T00:36:15.652Z,86.20
2019-02-27T00:38:41.955Z,85.90
2019-02-27T00:41:12.026Z,86.30
2019-02-27T00:43:36.464Z,86.30
2019-02-27T00:46:02.952Z,86.00
2019-02-27T00:48:29.212Z,85.90
2019-02-27T00:50:55.462Z,86.20
2019-02-27T00:53:22.009Z,86.50
2019-02-27T00:55:49.903Z,86.60
2019-02-27T00:58:16.176Z,86.60
2019-02-27T01:00:42.537Z,86.50
2019-02-27T01:03:08.885Z,87.60
2019-02-27T01:05:35.468Z,87.80
2019-02-27T01:08:01.965Z,87.90
2019-02-27T01:10:28.432Z,88.00
2019-02-27T01:12:57.666Z,88.20
2019-02-27T01:15:23.164Z,88.20
2019-02-27T01:17:49.508Z,88.30
2019-02-27T01:20:15.892Z,88.10
2019-02-27T01:22:42.202Z,88.20
2019-02-27T01:25:08.655Z,88.40
2019-02-27T01:27:37.917Z,88.30
2019-02-27T01:30:12.707Z,88.80
2019-02-27T01:32:38.973Z,89.30
2019-02-27T01:35:07.727Z,88.60
2019-02-27T01:37:34.010Z,89.00
2019-02-27T01:40:00.301Z,89.00
2019-02-27T01:42:32.028Z,89.00
2019-02-27T01:44:54.633Z,88.90
2019-02-27T01:47:21.316Z,89.00
2019-02-27T01:49:49.118Z,89.00
2019-02-27T01:52:15.773Z,89.20
2019-02-27T01:54:42.030Z,89.30
2019-02-27T01:57:08.376Z,89.50
2019-02-27T01:59:34.654Z,89.60
2019-02-27T02:02:01.046Z,89.60
2019-02-27T02:04:29.010Z,89.60
2019-02-27T02:06:55.288Z,89.70
2019-02-27T02:09:30.514Z,89.70
2019-02-27T02:11:57.233Z,89.70
2019-02-27T02:14:45.126Z,89.60
2019-02-27T02:17:34.998Z,89.70
2019-02-27T02:20:27.056Z,89.50
2019-02-27T02:23:13.981Z,89.20
2019-02-27T02:26:01.336Z,89.10
2019-02-27T02:28:49.923Z,89.10
2019-02-27T02:31:22.750Z,89.10
2019-02-27T02:34:19.881Z,89.20
2019-02-27T02:37:05.052Z,90.00
2019-02-27T02:39:54.714Z,90.10
2019-02-27T02:42:31.464Z,90.20
2019-02-27T02:45:13.775Z,90.30
2019-02-27T02:48:11.133Z,90.30
2019-02-27T02:50:46.969Z,90.40
2019-02-27T02:53:25.247Z,90.30
2019-02-27T02:55:54.951Z,90.20
2019-02-27T02:58:25.029Z,90.30
2019-02-27T03:01:03.683Z,90.20
2019-02-27T03:03:53.542Z,90.10
2019-02-27T03:06:40.620Z,90.10
2019-02-27T03:09:35.032Z,90.00
2019-02-27T03:12:29.937Z,90.00
2019-02-27T03:15:03.916Z,89.90
2019-02-27T03:17:55.389Z,90.00
2019-02-27T03:20:43.801Z,90.20
2019-02-27T03:23:19.938Z,90.30
2019-02-27T03:25:55.857Z,90.50
2019-02-27T03:28:28.964Z,90.50
2019-02-27T03:31:16.848Z,90.50
2019-02-27T03:33:51.723Z,90.60
2019-02-27T03:36:27.787Z,90.60
2019-02-27T03:39:17.441Z,90.50
2019-02-27T03:42:04.114Z,90.40
2019-02-27T03:44:37.319Z,90.40
2019-02-27T03:47:15.430Z,90.60
2019-02-27T03:49:51.209Z,90.40
2019-02-27T03:52:39.209Z,90.40
2019-02-27T03:55:38.646Z,90.50
2019-02-27T03:58:20.765Z,90.60
2019-02-27T04:00:53.798Z,90.60
2019-02-27T04:03:31.933Z,90.70
2019-02-27T04:06:23.324Z,90.80
2019-02-27T04:08:56.613Z,90.80
2019-02-27T04:11:23.487Z,90.90
2019-02-27T04:13:49.994Z,90.90
2019-02-27T04:16:16.360Z,91.20
2019-02-27T04:18:42.652Z,91.20
2019-02-27T04:21:08.914Z,91.20
2019-02-27T04:23:35.191Z,91.10
2019-02-27T04:26:05.394Z,91.10
2019-02-27T04:28:30.630Z,90.80
2019-02-27T04:30:56.957Z,90.80
2019-02-27T04:33:24.189Z,90.80
2019-02-27T04:35:50.704Z,90.90
2019-02-27T04:38:17.072Z,91.00
2019-02-27T04:40:44.130Z,91.10
2019-02-27T04:43:11.045Z,91.10
2019-02-27T04:45:37.421Z,91.20
2019-02-27T04:48:03.672Z,91.10
2019-02-27T04:50:30.043Z,91.20
2019-02-27T04:52:58.084Z,91.20
2019-02-27T04:55:24.612Z,91.20
2019-02-27T04:57:50.894Z,91.20
2019-02-27T05:00:17.169Z,91.20
2019-02-27T05:02:43.415Z,91.30
2019-02-27T05:05:09.901Z,91.40
2019-02-27T05:07:36.153Z,91.50
2019-02-27T05:10:06.967Z,91.50
2019-02-27T05:12:33.013Z,91.40
2019-02-27T05:15:00.854Z,91.40
2019-02-27T05:17:27.462Z,91.30
2019-02-27T05:19:53.722Z,91.30
2019-02-27T05:22:20.035Z,91.30
2019-02-27T05:24:46.277Z,91.20
2019-02-27T05:27:12.564Z,91.20
2019-02-27T05:29:38.824Z,91.20
2019-02-27T05:32:05.203Z,91.10
2019-02-27T05:34:31.466Z,90.90
2019-02-27T05:36:57.743Z,90.90
2019-02-27T05:39:24.048Z,90.80
2019-02-27T05:41:50.340Z,90.80
2019-02-27T05:44:21.351Z,90.80
2019-02-27T05:46:45.536Z,90.90
2019-02-27T05:49:11.908Z,91.00
2019-02-27T05:51:38.161Z,90.90
2019-02-27T05:54:04.525Z,91.00
2019-02-27T05:56:30.855Z,91.00
2019-02-27T05:58:57.232Z,91.40
2019-02-27T06:01:23.516Z,91.30
2019-02-27T06:03:52.239Z,91.30
2019-02-27T06:06:18.058Z,91.40
2019-02-27T06:08:44.418Z,91.40
2019-02-27T06:11:10.712Z,91.50
2019-02-27T06:13:37.021Z,91.60
2019-02-27T06:16:06.607Z,91.60
2019-02-27T06:18:31.350Z,91.60
2019-02-27T06:20:57.613Z,91.70
2019-02-27T06:23:23.884Z,91.70
2019-02-27T06:25:50.368Z,91.80
2019-02-27T06:28:18.816Z,91.80
2019-02-27T06:30:44.832Z,91.90
2019-02-27T06:33:11.916Z,92.00
2019-02-27T06:35:38.657Z,92.00
2019-02-27T06:38:04.965Z,92.00
2019-02-27T06:40:31.195Z,92.10
2019-02-27T06:42:57.471Z,92.10
2019-02-27T06:45:23.752Z,92.10
2019-02-27T06:47:50.395Z,92.20
2019-02-27T06:50:16.801Z,92.30
2019-02-27T06:52:43.272Z,92.30
2019-02-27T06:55:14.369Z,92.70
2019-02-27T06:57:41.321Z,92.40
2019-02-27T07:00:16.529Z,92.40
2019-02-27T07:02:42.979Z,92.50
2019-02-27T07:05:13.302Z,92.60
2019-02-27T07:07:38.324Z,92.60
2019-02-27T07:10:07.884Z,92.70
2019-02-27T07:12:34.165Z,92.80
2019-02-27T07:15:00.552Z,92.90
2019-02-27T07:17:29.152Z,93.00
2019-02-27T07:19:54.903Z,93.10
2019-02-27T07:22:21.289Z,93.10
2019-02-27T07:24:47.536Z,93.20
2019-02-27T07:27:13.963Z,93.20
2019-02-27T07:29:40.212Z,93.30
2019-02-27T07:32:06.651Z,93.30
2019-02-27T07:34:33.143Z,93.40
2019-02-27T07:36:59.409Z,93.40
2019-02-27T07:39:25.887Z,93.50
2019-02-27T07:41:52.171Z,93.50
2019-02-27T07:44:18.432Z,93.90
2019-02-27T07:46:44.716Z,94.00
2019-02-27T07:49:10.965Z,93.80
2019-02-27T07:51:37.228Z,93.70
2019-02-27T07:54:04.012Z,93.70
2019-02-27T07:56:30.393Z,93.70
2019-02-27T07:58:56.640Z,93.70
2019-02-27T08:01:23.519Z,94.00
2019-02-27T08:03:50.501Z,93.80
2019-02-27T08:06:16.772Z,93.90
2019-02-27T08:08:43.059Z,94.30
2019-02-27T08:11:13.409Z,94.20
2019-02-27T08:13:37.424Z,94.40
2019-02-27T08:16:03.704Z,94.80
2019-02-27T08:18:30.774Z,94.90
2019-02-27T08:20:58.037Z,95.10
2019-02-27T08:23:24.403Z,94.70
2019-02-27T08:25:50.689Z,94.70
2019-02-27T08:28:16.974Z,94.40
2019-02-27T08:30:43.254Z,94.20
2019-02-27T08:33:09.521Z,94.10
2019-02-27T08:35:35.883Z,94.10
2019-02-27T08:38:02.971Z,94.00
2019-02-27T08:40:29.343Z,93.90
2019-02-27T08:42:55.687Z,93.90
2019-02-27T08:45:26.859Z,93.70
2019-02-27T08:47:50.045Z,93.60
2019-02-27T08:50:20.479Z,93.50
2019-02-27T08:52:50.521Z,93.50
2019-02-27T08:55:21.807Z,93.40
2019-02-27T08:57:45.525Z,93.40
2019-02-27T09:00:23.491Z,93.60
2019-02-27T09:02:50.207Z,93.60
2019-02-27T09:05:19.783Z,94.00
2019-02-27T09:07:44.847Z,94.00
2019-02-27T09:10:16.669Z,93.90
2019-02-27T09:12:45.410Z,93.60
2019-02-27T09:15:12.842Z,93.70
2019-02-27T09:17:39.293Z,93.70
2019-02-27T09:20:08.573Z,93.60
2019-02-27T09:22:36.742Z,93.60
2019-02-27T09:25:04.694Z,93.50
2019-02-27T09:27:32.952Z,93.40
2019-02-27T09:29:59.122Z,93.40
2019-02-27T09:32:25.367Z,93.20
2019-02-27T09:34:51.675Z,93.10
2019-02-27T09:37:17.917Z,93.20
2019-02-27T09:39:44.181Z,93.20
2019-02-27T09:42:10.563Z,93.20
2019-02-27T09:44:37.281Z,93.10
2019-02-27T09:47:03.697Z,92.80
2019-02-27T09:49:29.952Z,92.60
2019-02-27T09:51:56.927Z,92.20
2019-02-27T09:54:23.309Z,92.30
2019-02-27T09:56:49.560Z,92.20
2019-02-27T09:59:16.743Z,92.10
2019-02-27T10:01:44.001Z,91.70
2019-02-27T10:04:10.268Z,91.50
2019-02-27T10:06:36.639Z,91.60
2019-02-27T10:09:05.019Z,91.80
2019-02-27T10:11:31.286Z,90.70
2019-02-27T10:13:57.696Z,91.10
2019-02-27T10:16:24.049Z,91.20
2019-02-27T10:18:54.820Z,91.30
2019-02-27T10:21:18.575Z,91.00
2019-02-27T10:23:44.864Z,90.70
2019-02-27T10:26:11.275Z,90.60
2019-02-27T10:28:39.711Z,90.60
2019-02-27T10:31:05.660Z,90.50
2019-02-27T10:33:31.909Z,87.90
2019-02-27T10:36:03.351Z,86.30
2019-02-27T10:38:26.857Z,89.00
2019-02-27T10:40:53.199Z,87.90
2019-02-27T10:43:21.045Z,88.70
2019-02-27T10:45:49.279Z,87.20
2019-02-27T10:48:15.595Z,88.50
2019-02-27T10:50:41.985Z,86.50
2019-02-27T10:53:08.343Z,87.60
2019-02-27T10:55:34.624Z,86.50
2019-02-27T10:58:00.881Z,86.90
2019-02-27T11:00:32.162Z,87.30
2019-02-27T11:02:59.444Z,80.60
2019-02-27T11:05:27.802Z,81.50
2019-02-27T11:07:54.079Z,80.60
2019-02-27T11:10:21.791Z,80.20
2019-02-27T11:12:48.139Z,80.70
2019-02-27T11:15:16.421Z,82.90
2019-02-27T11:17:42.828Z,76.40
2019-02-27T11:20:10.501Z,79.80
2019-02-27T11:22:36.988Z,81.60
2019-02-27T11:25:06.656Z,82.20
2019-02-27T11:27:32.947Z,82.30
2019-02-27T11:30:01.369Z,80.70
2019-02-27T11:32:27.281Z,80.30
2019-02-27T11:34:53.591Z,82.10
2019-02-27T11:37:20.008Z,82.30
2019-02-27T11:39:46.291Z,81.70
2019-02-27T11:42:12.656Z,77.40
2019-02-27T11:44:38.977Z,77.70
2019-02-27T11:47:05.292Z,78.40
2019-02-27T11:49:31.578Z,76.30
2019-02-27T11:51:57.845Z,75.60
2019-02-27T11:54:24.127Z,76.60
2019-02-27T11:56:51.497Z,71.00
2019-02-27T11:59:18.562Z,75.40
2019-02-27T12:01:44.816Z,78.60
2019-02-27T12:04:11.208Z,77.90
2019-02-27T12:06:41.352Z,77.20
2019-02-27T12:09:06.076Z,77.60
2019-02-27T12:11:32.459Z,76.50
2019-02-27T12:13:58.868Z,76.80
2019-02-27T12:16:25.272Z,75.80
2019-02-27T12:18:51.646Z,74.00
2019-02-27T12:21:18.048Z,73.40
2019-02-27T12:23:44.881Z,69.80
2019-02-27T12:26:11.270Z,72.50
2019-02-27T12:28:37.545Z,71.90
2019-02-27T12:31:04.040Z,69.70
2019-02-27T12:33:30.360Z,68.00
2019-02-27T12:35:56.612Z,71.40
2019-02-27T12:38:22.860Z,66.50
2019-02-27T12:40:49.149Z,67.20
2019-02-27T12:43:18.367Z,70.20
2019-02-27T12:45:43.489Z,69.30
2019-02-27T12:48:12.581Z,67.60
2019-02-27T12:50:37.959Z,68.90
2019-02-27T12:53:04.323Z,68.20
2019-02-27T12:55:35.479Z,70.50
2019-02-27T12:57:59.047Z,70.40
2019-02-27T13:00:28.237Z,69.00
2019-02-27T13:02:54.865Z,70.00
2019-02-27T13:05:21.296Z,68.60
2019-02-27T13:07:47.687Z,67.10
2019-02-27T13:10:19.863Z,61.30
2019-02-27T13:12:46.163Z,60.70
2019-02-27T13:15:26.619Z,65.60
2019-02-27T13:17:56.059Z,64.60
2019-02-27T13:20:30.130Z,65.40
2019-02-27T13:22:56.478Z,64.90
2019-02-27T13:25:24.122Z,64.80
2019-02-27T13:27:51.125Z,64.30
2019-02-27T13:30:26.915Z,66.40
2019-02-27T13:32:53.288Z,61.40
2019-02-27T13:35:20.184Z,64.80
2019-02-27T13:37:48.346Z,65.90
2019-02-27T13:40:25.028Z,66.50
2019-02-27T13:42:53.349Z,66.70
2019-02-27T13:45:21.654Z,58.50
2019-02-27T13:47:48.055Z,56.40
2019-02-27T13:50:14.511Z,60.50
2019-02-27T13:52:40.981Z,56.00
2019-02-27T13:55:11.158Z,57.20
2019-02-27T13:57:38.115Z,61.10
2019-02-27T14:00:14.304Z,61.80
2019-02-27T14:02:40.569Z,57.10
2019-02-27T14:05:08.316Z,58.20
2019-02-27T14:07:34.836Z,56.70
2019-02-27T14:10:01.222Z,58.40
2019-02-27T14:12:29.981Z,58.60
2019-02-27T14:14:55.964Z,60.40
2019-02-27T14:17:22.334Z,48.50
2019-02-27T14:22:15.420Z,50.70
2019-02-27T14:27:08.517Z,78.60
2019-02-27T14:36:54.648Z,52.60
2019-02-27T14:39:20.916Z,49.10
2019-02-27T14:41:48.777Z,46.10
2019-02-27T14:44:15.296Z,43.80
2019-02-27T14:49:10.196Z,47.70
2019-02-27T14:51:36.593Z,57.70
2019-02-27T15:03:50.416Z,75.80
2019-02-27T16:39:41.743Z,37.40
2019-02-27T16:42:08.284Z,37.80
2019-02-27T16:44:34.667Z,38.00
2019-02-27T16:47:03.354Z,38.00
2019-02-27T16:49:29.006Z,38.30
2019-02-27T16:51:55.263Z,38.50
2019-02-27T16:54:24.060Z,38.80
2019-02-27T16:56:50.889Z,39.00
2019-02-27T16:59:17.352Z,39.30
2019-02-27T17:01:43.627Z,39.50
2019-02-27T17:04:11.323Z,39.90
2019-02-27T17:06:37.765Z,40.20
2019-02-27T17:09:07.193Z,40.50
2019-02-27T17:11:33.208Z,40.70
2019-02-27T17:13:59.496Z,40.80
2019-02-27T17:16:25.800Z,41.10
2019-02-27T17:18:52.065Z,41.50
2019-02-27T17:21:21.981Z,41.70
2019-02-27T17:23:46.680Z,41.80
2019-02-27T17:26:13.065Z,42.10
2019-02-27T17:28:39.320Z,42.20
2019-02-27T17:31:05.614Z,42.80
2019-02-27T17:33:31.913Z,42.90
2019-02-27T17:35:59.272Z,43.30
2019-02-27T17:38:25.775Z,43.80
2019-02-27T17:40:52.540Z,44.30
2019-02-27T17:43:19.226Z,44.70
2019-02-27T17:45:46.971Z,44.90
2019-02-27T17:48:13.776Z,45.10
2019-02-27T17:50:40.092Z,45.30
2019-02-27T17:53:06.389Z,45.70
2019-02-27T17:55:32.736Z,45.90
2019-02-27T17:57:59.316Z,46.10
2019-02-27T18:00:37.556Z,46.40
2019-02-27T18:03:04.979Z,46.70
2019-02-27T18:08:20.455Z,46.80
2019-02-27T18:10:47.899Z,47.30
2019-02-27T18:13:14.201Z,47.40
2019-02-27T18:15:40.597Z,47.30
2019-02-27T18:18:10.446Z,47.80
2019-02-27T18:20:36.722Z,47.80
2019-02-27T18:23:04.054Z,47.70
2019-02-27T18:25:30.426Z,47.90
2019-02-27T18:27:59.618Z,48.70
2019-02-27T18:30:24.976Z,49.00
2019-02-27T18:32:51.361Z,49.30
2019-02-27T18:35:18.924Z,49.50
2019-02-27T18:37:45.404Z,49.40
2019-02-27T18:40:13.671Z,50.00
2019-02-27T18:42:40.069Z,50.50
2019-02-27T18:45:09.223Z,50.30
2019-02-27T18:47:35.893Z,50.30
2019-02-27T18:50:03.425Z,51.00
2019-02-27T18:52:29.701Z,51.40
2019-02-27T18:54:55.955Z,51.50
2019-02-27T18:57:23.496Z,51.50
2019-02-27T18:59:50.065Z,51.70
2019-02-27T19:02:19.664Z,52.00
2019-02-27T19:04:45.791Z,52.30
2019-02-27T19:07:12.808Z,52.40
2019-02-27T19:09:39.347Z,52.60
2019-02-27T19:12:05.977Z,53.60
2019-02-27T19:14:36.725Z,53.50
2019-02-27T19:17:02.432Z,53.80
2019-02-27T19:19:29.336Z,54.30
2019-02-27T19:21:55.730Z,54.70
2019-02-27T19:24:26.700Z,54.80
2019-02-27T19:26:50.147Z,55.20
2019-02-27T19:29:17.491Z,55.80
2019-02-27T19:31:43.857Z,56.40
2019-02-27T19:34:10.909Z,56.70
2019-02-27T19:36:37.287Z,56.70
2019-02-27T19:39:04.540Z,57.20
2019-02-27T19:41:30.929Z,57.80
2019-02-27T19:43:57.216Z,58.00
2019-02-27T19:46:23.593Z,58.80
2019-02-27T19:48:51.525Z,58.40
2019-02-27T19:51:20.196Z,58.90
2019-02-27T19:53:45.969Z,59.40
2019-02-27T19:56:12.354Z,59.60
2019-02-27T19:58:38.714Z,59.80
2019-02-27T20:01:08.937Z,59.60
2019-02-27T20:03:35.449Z,60.00
2019-02-27T20:06:02.013Z,60.40
2019-02-27T20:08:28.423Z,60.90
2019-02-27T20:10:55.098Z,61.50
2019-02-27T20:13:21.573Z,61.60
2019-02-27T20:15:49.946Z,62.30
2019-02-27T20:18:16.225Z,62.90
2019-02-27T20:20:42.794Z,62.80
2019-02-27T20:23:09.153Z,63.10
2019-02-27T20:25:35.545Z,63.10
2019-02-27T20:28:02.023Z,62.70
2019-02-27T20:30:28.484Z,62.40
2019-02-27T20:32:54.939Z,62.40
2019-02-27T20:35:21.664Z,63.00
2019-02-27T20:37:47.991Z,63.30
2019-02-27T20:40:15.653Z,64.00
2019-02-27T20:42:43.751Z,64.30
2019-02-27T20:45:13.304Z,65.10
2019-02-27T20:47:39.796Z,65.40
2019-02-27T20:50:09.753Z,73.20
2019-02-27T20:52:36.113Z,75.10
2019-02-27T20:55:03.395Z,71.80
2019-02-27T20:57:29.668Z,71.60
2019-02-27T21:00:00.647Z,71.40
2019-02-27T21:02:24.049Z,71.20
2019-02-27T21:04:50.317Z,70.90
2019-02-27T21:07:22.202Z,70.90
2019-02-27T21:09:45.211Z,70.30
2019-02-27T21:12:12.280Z,70.30
2019-02-27T21:14:38.536Z,70.40
2019-02-27T21:17:04.787Z,70.40
2019-02-27T21:19:31.063Z,70.60
2019-02-27T21:21:57.340Z,70.50
2019-02-27T21:24:23.716Z,70.80
2019-02-27T21:26:49.982Z,71.10
2019-02-27T21:29:16.328Z,71.30
2019-02-27T21:31:42.729Z,72.00
2019-02-27T21:34:08.990Z,71.60
2019-02-27T21:36:36.777Z,72.30
2019-02-27T21:39:04.307Z,72.60
2019-02-27T21:41:30.583Z,72.80
2019-02-27T21:43:57.257Z,73.20
2019-02-27T21:46:23.544Z,73.30
2019-02-27T21:48:49.778Z,73.50
2019-02-27T21:51:16.069Z,73.50
2019-02-27T21:53:42.447Z,73.70
2019-02-27T21:56:08.829Z,74.10
2019-02-27T21:58:35.092Z,74.60
2019-02-27T22:01:01.354Z,75.00
2019-02-27T22:03:27.752Z,75.20
2019-02-27T22:05:54.132Z,75.20
2019-02-27T22:08:20.398Z,75.40
2019-02-27T22:10:46.792Z,75.90
2019-02-27T22:13:13.241Z,75.60
2019-02-27T22:15:39.655Z,75.90
2019-02-27T22:18:08.367Z,75.30
2019-02-27T22:20:33.984Z,75.50
2019-02-27T22:23:00.364Z,75.20
2019-02-27T22:25:30.167Z,75.30
2019-02-27T22:27:54.868Z,75.40
2019-02-27T22:30:22.027Z,75.70
2019-02-27T22:32:48.852Z,75.80
2019-02-27T22:35:15.434Z,76.30
2019-02-27T22:37:41.912Z,76.70
2019-02-27T22:40:14.211Z,76.00
2019-02-27T22:42:40.565Z,76.30
2019-02-27T22:45:09.675Z,76.90
2019-02-27T22:47:36.035Z,76.50
2019-02-27T22:50:06.930Z,77.00
2019-02-27T22:52:32.586Z,77.00
2019-02-27T22:54:58.839Z,77.60
2019-02-27T22:57:25.128Z,78.30
2019-02-27T22:59:51.421Z,77.90
2019-02-27T23:02:17.917Z,78.30
2019-02-27T23:04:44.297Z,78.30
2019-02-27T23:07:10.820Z,78.30
2019-02-27T23:09:37.425Z,78.60
2019-02-27T23:12:03.979Z,78.70
2019-02-27T23:14:30.465Z,79.00
2019-02-27T23:16:56.929Z,78.70
2019-02-27T23:19:23.436Z,79.50
2019-02-27T23:21:49.803Z,80.00
2019-02-27T23:24:16.248Z,80.00
2019-02-27T23:26:42.732Z,79.80
2019-02-27T23:29:09.100Z,79.60
2019-02-27T23:31:35.497Z,79.20
2019-02-27T23:34:01.924Z,79.00
2019-02-27T23:36:28.329Z,78.70
2019-02-27T23:38:54.609Z,78.70
2019-02-27T23:41:23.184Z,78.90
2019-02-27T23:43:49.165Z,78.90
2019-02-27T23:46:15.734Z,79.10
2019-02-27T23:48:43.708Z,79.50
2019-02-27T23:51:10.212Z,79.70
2019-02-27T23:53:36.668Z,79.70
2019-02-27T23:56:03.882Z,80.20
2019-02-27T23:58:30.433Z,80.40
